createdAt,value
2023-03-28T00:00:50.385Z,4.18
2023-03-28T00:01:53.637Z,4.70
2023-03-28T00:02:55.788Z,4.32
2023-03-28T00:04:01.726Z,4.72
2023-03-28T00:05:04.831Z,4.43
2023-03-28T00:06:10.988Z,4.22
2023-03-28T00:07:13.270Z,4.70
2023-03-28T00:08:16.680Z,4.32
2023-03-28T00:09:18.879Z,4.60
2023-03-28T00:10:22.068Z,4.30
2023-03-28T00:11:24.475Z,3.95
2023-03-28T00:12:27.698Z,4.53
2023-03-28T00:13:30.028Z,4.72
2023-03-28T00:14:35.597Z,3.70
2023-03-28T00:15:38.675Z,4.00
2023-03-28T00:16:46.923Z,4.65
2023-03-28T00:17:49.288Z,4.57
2023-03-28T00:18:53.180Z,4.57
2023-03-28T00:19:55.181Z,4.35
2023-03-28T00:20:58.926Z,4.80
2023-03-28T00:22:00.956Z,4.78
2023-03-28T00:23:04.314Z,4.50
2023-03-28T00:24:10.903Z,4.15
2023-03-28T00:25:14.338Z,4.10
2023-03-28T00:26:16.420Z,4.40
2023-03-28T00:27:19.669Z,4.10
2023-03-28T00:28:21.914Z,3.90
2023-03-28T00:29:26.309Z,3.92
2023-03-28T00:30:28.498Z,4.10
2023-03-28T00:31:34.751Z,4.35
2023-03-28T00:32:38.562Z,4.43
2023-03-28T00:33:42.032Z,3.92
2023-03-28T00:34:44.174Z,3.80
2023-03-28T00:35:47.169Z,4.40
2023-03-28T00:36:50.719Z,4.18
2023-03-28T00:37:58.022Z,4.50
2023-03-28T00:39:01.346Z,4.63
2023-03-28T00:40:07.806Z,4.90
2023-03-28T00:41:10.367Z,4.90
2023-03-28T00:42:15.431Z,3.95
2023-03-28T00:43:17.476Z,3.85
2023-03-28T00:44:42.622Z,4.30
2023-03-28T00:45:53.183Z,4.00
2023-03-28T00:47:05.649Z,4.80
2023-03-28T00:48:15.452Z,4.28
2023-03-28T00:49:21.304Z,4.47
2023-03-28T00:50:28.562Z,4.40
2023-03-28T00:51:35.487Z,4.57
2023-03-28T00:52:41.321Z,4.28
2023-03-28T00:53:43.533Z,4.07
2023-03-28T00:54:47.401Z,4.85
2023-03-28T00:55:57.602Z,3.83
2023-03-28T00:57:03.459Z,4.65
2023-03-28T00:58:10.440Z,4.60
2023-03-28T00:59:16.164Z,4.30
2023-03-28T01:00:19.166Z,4.78
2023-03-28T01:01:23.307Z,4.35
2023-03-28T01:02:25.639Z,4.43
2023-03-28T01:03:34.083Z,4.20
2023-03-28T01:04:46.409Z,4.10
2023-03-28T01:05:50.281Z,4.10
2023-03-28T01:06:56.880Z,4.45
2023-03-28T01:08:07.420Z,4.38
2023-03-28T01:09:09.937Z,4.95
2023-03-28T01:10:14.069Z,4.30
2023-03-28T01:11:17.072Z,4.47
2023-03-28T01:12:21.407Z,4.50
2023-03-28T01:13:27.999Z,4.57
2023-03-28T01:14:31.806Z,5.05
2023-03-28T01:15:36.282Z,5.18
2023-03-28T01:16:42.896Z,4.75
2023-03-28T01:17:46.399Z,5.35
2023-03-28T01:18:52.503Z,4.63
2023-03-28T01:20:06.580Z,4.00
2023-03-28T01:21:48.525Z,5.22
2023-03-28T01:23:44.104Z,5.05
2023-03-28T01:25:05.574Z,5.40
2023-03-28T01:26:33.606Z,5.50
2023-03-28T01:27:39.326Z,4.85
2023-03-28T01:29:23.988Z,5.60
2023-03-28T01:30:57.407Z,5.80
2023-03-28T01:33:11.819Z,5.13
2023-03-28T01:35:05.509Z,5.95
2023-03-28T01:36:54.460Z,5.65
2023-03-28T01:38:04.503Z,6.00
2023-03-28T01:39:14.118Z,6.15
2023-03-28T01:40:29.439Z,5.95
2023-03-28T01:41:48.556Z,6.03
2023-03-28T01:43:02.914Z,7.10
2023-03-28T01:44:12.362Z,5.70
2023-03-28T01:45:19.294Z,8.15
2023-03-28T01:46:29.229Z,6.50
2023-03-28T01:47:35.638Z,6.47
2023-03-28T01:48:46.498Z,7.30
2023-03-28T01:49:57.322Z,6.55
2023-03-28T01:51:09.781Z,7.55
2023-03-28T01:52:20.020Z,7.22
2023-03-28T01:53:28.239Z,7.25
2023-03-28T01:54:33.536Z,6.20
2023-03-28T01:55:41.875Z,7.10
2023-03-28T01:56:54.162Z,7.43
2023-03-28T01:58:12.740Z,8.25
2023-03-28T01:59:27.856Z,7.50
2023-03-28T02:00:54.999Z,6.78
2023-03-28T02:02:03.337Z,8.00
2023-03-28T02:03:12.283Z,7.32
2023-03-28T02:04:37.184Z,6.57
2023-03-28T02:05:42.574Z,7.25
2023-03-28T02:06:51.032Z,7.88
2023-03-28T02:08:03.234Z,7.28
2023-03-28T02:09:24.973Z,7.20
2023-03-28T02:10:51.738Z,7.47
2023-03-28T02:12:17.319Z,7.35
2023-03-28T02:13:37.409Z,7.55
2023-03-28T02:15:04.204Z,7.90
2023-03-28T02:16:13.376Z,6.60
2023-03-28T02:17:42.257Z,6.95
2023-03-28T02:19:01.356Z,8.32
2023-03-28T02:20:24.859Z,9.02
2023-03-28T02:21:59.804Z,7.95
2023-03-28T02:23:27.429Z,7.70
2023-03-28T02:24:50.366Z,7.43
2023-03-28T02:26:25.767Z,8.13
2023-03-28T02:27:34.762Z,7.85
2023-03-28T02:28:59.271Z,7.25
2023-03-28T02:30:25.448Z,7.75
2023-03-28T02:31:29.843Z,7.32
2023-03-28T02:32:34.205Z,6.75
2023-03-28T02:33:40.104Z,8.43
2023-03-28T02:34:45.091Z,7.50
2023-03-28T02:35:53.003Z,8.00
2023-03-28T02:37:06.682Z,8.15
2023-03-28T02:38:19.302Z,8.32
2023-03-28T02:39:43.691Z,7.70
2023-03-28T02:40:55.178Z,7.20
2023-03-28T02:42:24.180Z,7.20
2023-03-28T02:43:53.763Z,7.18
2023-03-28T02:45:17.727Z,7.35
2023-03-28T02:46:25.701Z,7.72
2023-03-28T02:47:34.464Z,7.00
2023-03-28T02:48:47.500Z,7.72
2023-03-28T02:50:04.262Z,8.25
2023-03-28T02:51:22.579Z,8.20
2023-03-28T02:52:35.143Z,8.10
2023-03-28T02:53:44.976Z,7.97
2023-03-28T02:54:52.982Z,7.80
2023-03-28T02:56:08.445Z,7.43
2023-03-28T02:57:36.587Z,7.90
2023-03-28T02:58:47.316Z,6.32
2023-03-28T02:59:55.900Z,8.23
2023-03-28T03:00:57.955Z,7.95
2023-03-28T03:02:02.900Z,8.15
2023-03-28T03:03:11.274Z,8.23
2023-03-28T03:04:17.204Z,7.80
2023-03-28T03:05:20.439Z,8.20
2023-03-28T03:06:23.694Z,8.38
2023-03-28T03:07:26.028Z,7.50
2023-03-28T03:08:30.078Z,7.03
2023-03-28T03:09:33.309Z,8.25
2023-03-28T03:10:37.787Z,9.23
2023-03-28T03:11:39.898Z,8.13
2023-03-28T03:12:43.039Z,7.88
2023-03-28T03:13:45.316Z,8.57
2023-03-28T03:14:50.752Z,7.63
2023-03-28T03:16:11.392Z,7.90
2023-03-28T03:17:14.431Z,8.25
2023-03-28T03:18:17.026Z,7.78
2023-03-28T03:19:20.317Z,7.15
2023-03-28T03:20:22.885Z,8.05
2023-03-28T03:21:27.340Z,6.82
2023-03-28T03:22:29.607Z,8.50
2023-03-28T03:23:32.767Z,8.35
2023-03-28T03:24:36.285Z,7.95
2023-03-28T03:25:41.070Z,7.72
2023-03-28T03:26:47.177Z,7.75
2023-03-28T03:27:52.559Z,8.05
2023-03-28T03:28:55.277Z,7.97
2023-03-28T03:30:02.487Z,7.72
2023-03-28T03:31:17.419Z,7.68
2023-03-28T03:32:36.682Z,8.07
2023-03-28T03:33:41.496Z,7.30
2023-03-28T03:34:45.212Z,8.75
2023-03-28T03:35:48.306Z,7.32
2023-03-28T03:36:53.066Z,7.70
2023-03-28T03:37:55.454Z,8.10
2023-03-28T03:38:59.004Z,7.82
2023-03-28T03:40:01.607Z,8.82
2023-03-28T03:41:10.294Z,7.43
2023-03-28T03:42:12.950Z,7.65
2023-03-28T03:43:15.988Z,7.35
2023-03-28T03:44:20.195Z,10.25
2023-03-28T03:45:22.636Z,8.95
2023-03-28T03:46:25.901Z,8.77
2023-03-28T03:47:28.735Z,8.15
2023-03-28T03:48:31.797Z,8.23
2023-03-28T03:49:35.864Z,7.32
2023-03-28T03:50:40.202Z,7.45
2023-03-28T03:51:49.486Z,7.72
2023-03-28T03:52:52.430Z,7.85
2023-03-28T03:54:04.003Z,7.82
2023-03-28T03:55:10.650Z,7.15
2023-03-28T03:56:18.001Z,7.95
2023-03-28T03:57:38.914Z,7.82
2023-03-28T03:58:42.412Z,7.40
2023-03-28T03:59:45.717Z,6.63
2023-03-28T04:00:52.086Z,8.18
2023-03-28T04:02:09.253Z,7.45
2023-03-28T04:03:34.399Z,7.57
2023-03-28T04:04:40.435Z,7.25
2023-03-28T04:05:55.136Z,8.80
2023-03-28T04:06:59.150Z,8.25
2023-03-28T04:08:01.689Z,8.52
2023-03-28T04:09:09.932Z,7.85
2023-03-28T04:10:34.970Z,7.35
2023-03-28T04:11:39.675Z,8.10
2023-03-28T04:12:41.814Z,7.63
2023-03-28T04:13:44.982Z,7.35
2023-03-28T04:14:47.324Z,8.13
2023-03-28T04:16:11.982Z,8.82
2023-03-28T04:17:35.142Z,7.63
2023-03-28T04:18:45.572Z,7.75
2023-03-28T04:19:49.624Z,7.72
2023-03-28T04:20:55.391Z,7.70
2023-03-28T04:22:14.620Z,8.07
2023-03-28T04:23:25.837Z,8.13
2023-03-28T04:24:29.043Z,8.65
2023-03-28T04:25:49.211Z,8.85
2023-03-28T04:26:59.886Z,7.95
2023-03-28T04:28:03.667Z,8.10
2023-03-28T04:29:12.421Z,8.30
2023-03-28T04:30:18.047Z,8.40
2023-03-28T04:31:40.320Z,8.00
2023-03-28T04:33:06.914Z,8.23
2023-03-28T04:34:14.096Z,8.90
2023-03-28T04:35:35.372Z,8.45
2023-03-28T04:36:40.865Z,7.75
2023-03-28T04:37:43.942Z,7.70
2023-03-28T04:38:46.018Z,8.20
2023-03-28T04:40:03.987Z,8.80
2023-03-28T04:41:24.129Z,8.98
2023-03-28T04:42:54.566Z,7.93
2023-03-28T04:44:04.761Z,8.00
2023-03-28T04:45:16.466Z,8.73
2023-03-28T04:46:20.326Z,9.20
2023-03-28T04:47:23.992Z,8.25
2023-03-28T04:48:27.346Z,8.02
2023-03-28T04:49:30.706Z,7.68
2023-03-28T04:50:35.630Z,7.80
2023-03-28T04:51:39.021Z,8.55
2023-03-28T04:52:41.969Z,8.75
2023-03-28T04:53:45.208Z,8.60
2023-03-28T04:55:10.334Z,10.05
2023-03-28T04:56:13.915Z,8.10
2023-03-28T04:57:17.121Z,8.90
2023-03-28T04:58:24.301Z,9.07
2023-03-28T04:59:28.242Z,9.57
2023-03-28T05:00:31.179Z,9.00
2023-03-28T05:01:40.347Z,8.63
2023-03-28T05:03:05.255Z,7.55
2023-03-28T05:04:18.428Z,9.02
2023-03-28T05:05:20.895Z,8.95
2023-03-28T05:06:25.923Z,9.48
2023-03-28T05:07:28.351Z,9.05
2023-03-28T05:08:32.734Z,8.80
2023-03-28T05:09:36.095Z,9.18
2023-03-28T05:10:39.190Z,9.93
2023-03-28T05:11:43.208Z,8.77
2023-03-28T05:12:46.461Z,8.40
2023-03-28T05:13:49.899Z,8.85
2023-03-28T05:15:03.236Z,9.63
2023-03-28T05:16:06.808Z,11.05
2023-03-28T05:17:26.640Z,9.13
2023-03-28T05:18:38.214Z,10.05
2023-03-28T05:19:40.734Z,9.45
2023-03-28T05:20:51.931Z,8.40
2023-03-28T05:21:54.419Z,8.57
2023-03-28T05:22:58.044Z,9.05
2023-03-28T05:24:00.256Z,8.38
2023-03-28T05:25:03.277Z,8.32
2023-03-28T05:26:06.643Z,9.15
2023-03-28T05:27:10.404Z,8.32
2023-03-28T05:28:12.581Z,9.52
2023-03-28T05:29:25.417Z,8.70
2023-03-28T05:30:28.318Z,8.23
2023-03-28T05:31:33.193Z,7.65
2023-03-28T05:32:51.438Z,8.65
2023-03-28T05:33:53.503Z,8.75
2023-03-28T05:35:12.482Z,7.85
2023-03-28T05:36:15.626Z,7.70
2023-03-28T05:37:17.803Z,8.23
2023-03-28T05:38:31.410Z,7.32
2023-03-28T05:39:38.892Z,8.00
2023-03-28T05:40:43.738Z,7.72
2023-03-28T05:41:46.022Z,8.40
2023-03-28T05:42:49.059Z,8.60
2023-03-28T05:43:54.476Z,8.30
2023-03-28T05:45:17.302Z,7.45
2023-03-28T05:46:22.218Z,7.70
2023-03-28T05:47:25.664Z,7.03
2023-03-28T05:48:28.867Z,7.65
2023-03-28T05:49:30.926Z,7.05
2023-03-28T05:50:33.987Z,7.90
2023-03-28T05:51:40.378Z,7.25
2023-03-28T05:52:43.435Z,7.75
2023-03-28T05:53:46.513Z,6.75
2023-03-28T05:54:50.272Z,6.95
2023-03-28T05:55:56.622Z,6.32
2023-03-28T05:56:58.721Z,5.90
2023-03-28T05:58:02.128Z,5.72
2023-03-28T05:59:15.130Z,6.30
2023-03-28T06:00:21.095Z,6.63
2023-03-28T06:01:28.967Z,6.82
2023-03-28T06:02:36.897Z,6.20
2023-03-28T06:03:42.622Z,6.30
2023-03-28T06:04:45.258Z,6.15
2023-03-28T06:05:50.041Z,6.18
2023-03-28T06:07:00.969Z,5.43
2023-03-28T06:08:04.989Z,5.95
2023-03-28T06:09:10.844Z,6.68
2023-03-28T06:10:24.260Z,5.85
2023-03-28T06:11:47.393Z,5.70
2023-03-28T06:12:50.423Z,5.30
2023-03-28T06:13:53.541Z,5.47
2023-03-28T06:14:57.116Z,6.32
2023-03-28T06:16:05.861Z,5.53
2023-03-28T06:17:10.649Z,5.70
2023-03-28T06:18:28.070Z,6.55
2023-03-28T06:19:30.173Z,5.60
2023-03-28T06:20:33.842Z,5.30
2023-03-28T06:21:35.933Z,4.85
2023-03-28T06:22:42.342Z,5.57
2023-03-28T06:23:46.270Z,6.13
2023-03-28T06:24:59.301Z,6.38
2023-03-28T06:26:05.067Z,5.20
2023-03-28T06:27:14.426Z,5.70
2023-03-28T06:28:17.575Z,5.50
2023-03-28T06:29:41.284Z,6.65
2023-03-28T06:30:48.174Z,5.60
2023-03-28T06:31:51.989Z,5.65
2023-03-28T06:32:55.453Z,6.03
2023-03-28T06:33:59.808Z,6.10
2023-03-28T06:35:01.926Z,6.78
2023-03-28T06:36:05.694Z,5.93
2023-03-28T06:37:10.156Z,6.32
2023-03-28T06:38:39.479Z,5.35
2023-03-28T06:39:43.194Z,5.78
2023-03-28T06:40:46.679Z,5.95
2023-03-28T06:41:48.757Z,5.95
2023-03-28T06:42:51.855Z,5.30
2023-03-28T06:44:09.703Z,5.95
2023-03-28T06:45:33.046Z,6.28
2023-03-28T06:46:39.375Z,5.55
2023-03-28T06:47:45.374Z,5.50
2023-03-28T06:48:48.540Z,5.70
2023-03-28T06:50:00.547Z,4.93
2023-03-28T06:51:08.537Z,6.00
2023-03-28T06:52:12.778Z,5.40
2023-03-28T06:53:16.737Z,4.65
2023-03-28T06:54:20.720Z,5.43
2023-03-28T06:55:23.317Z,5.00
2023-03-28T06:56:26.408Z,5.90
2023-03-28T06:57:30.568Z,5.13
2023-03-28T06:58:45.381Z,5.65
2023-03-28T06:59:51.640Z,5.22
2023-03-28T07:01:01.141Z,4.82
2023-03-28T07:02:23.062Z,4.50
2023-03-28T07:03:29.998Z,4.28
2023-03-28T07:04:35.074Z,5.18
2023-03-28T07:05:38.808Z,4.30
2023-03-28T07:06:42.429Z,4.40
2023-03-28T07:07:44.554Z,5.30
2023-03-28T07:08:47.730Z,4.88
2023-03-28T07:09:54.579Z,4.72
2023-03-28T07:10:57.827Z,3.90
2023-03-28T07:12:01.071Z,4.63
2023-03-28T07:13:04.949Z,4.72
2023-03-28T07:14:07.575Z,4.10
2023-03-28T07:15:11.694Z,4.53
2023-03-28T07:16:15.355Z,4.85
2023-03-28T07:17:19.008Z,4.30
2023-03-28T07:18:21.221Z,5.38
2023-03-28T07:19:25.944Z,4.20
2023-03-28T07:20:28.664Z,4.50
2023-03-28T07:21:31.928Z,4.15
2023-03-28T07:22:36.191Z,4.38
2023-03-28T07:23:40.422Z,4.07
2023-03-28T07:24:44.086Z,3.60
2023-03-28T07:25:48.110Z,3.75
2023-03-28T07:26:54.820Z,4.18
2023-03-28T07:28:04.819Z,4.75
2023-03-28T07:29:10.246Z,4.05
2023-03-28T07:30:31.203Z,4.47
2023-03-28T07:31:33.562Z,4.00
2023-03-28T07:32:48.108Z,4.03
2023-03-28T07:33:58.120Z,3.50
2023-03-28T07:35:03.336Z,4.78
2023-03-28T07:36:11.866Z,4.60
2023-03-28T07:37:15.177Z,4.10
2023-03-28T07:38:49.328Z,4.22
2023-03-28T07:39:54.428Z,4.80
2023-03-28T07:41:01.856Z,3.63
2023-03-28T07:42:04.349Z,3.92
2023-03-28T07:43:07.464Z,4.35
2023-03-28T07:44:09.588Z,5.50
2023-03-28T07:45:13.181Z,4.07
2023-03-28T07:46:17.179Z,3.83
2023-03-28T07:47:19.342Z,4.05
2023-03-28T07:48:22.558Z,3.97
2023-03-28T07:49:24.601Z,4.05
2023-03-28T07:50:29.351Z,3.75
2023-03-28T07:51:32.423Z,4.25
2023-03-28T07:52:35.496Z,3.85
2023-03-28T07:53:39.642Z,3.55
2023-03-28T07:54:43.698Z,3.90
2023-03-28T07:55:54.496Z,3.92
2023-03-28T07:57:02.995Z,3.05
2023-03-28T07:58:24.784Z,3.53
2023-03-28T07:59:27.274Z,3.75
2023-03-28T08:00:30.569Z,3.47
2023-03-28T08:01:52.779Z,3.35
2023-03-28T08:02:58.917Z,3.28
2023-03-28T08:04:02.918Z,3.38
2023-03-28T08:05:18.747Z,3.30
2023-03-28T08:06:32.163Z,3.88
2023-03-28T08:07:37.683Z,3.80
2023-03-28T08:08:39.886Z,3.35
2023-03-28T08:09:54.422Z,3.38
2023-03-28T08:11:03.914Z,3.40
2023-03-28T08:12:06.530Z,3.03
2023-03-28T08:13:09.690Z,3.85
2023-03-28T08:14:15.406Z,3.33
2023-03-28T08:15:17.757Z,3.35
2023-03-28T08:16:21.162Z,3.50
2023-03-28T08:17:24.524Z,3.95
2023-03-28T08:18:27.967Z,3.70
2023-03-28T08:19:30.982Z,3.50
2023-03-28T08:20:45.448Z,3.58
2023-03-28T08:21:53.027Z,3.30
2023-03-28T08:22:56.173Z,3.20
2023-03-28T08:24:35.151Z,3.63
2023-03-28T08:25:47.892Z,2.85
2023-03-28T08:26:54.331Z,3.72
2023-03-28T08:27:56.539Z,3.63
2023-03-28T08:28:59.868Z,2.60
2023-03-28T08:30:04.250Z,2.80
2023-03-28T08:31:14.997Z,2.50
2023-03-28T08:32:20.944Z,3.00
2023-03-28T08:33:23.447Z,2.60
2023-03-28T08:34:27.204Z,2.80
2023-03-28T08:35:32.491Z,2.80
2023-03-28T08:36:39.284Z,2.88
2023-03-28T08:37:50.105Z,2.10
2023-03-28T08:38:54.404Z,2.90
2023-03-28T08:39:58.977Z,2.67
2023-03-28T08:41:08.266Z,3.47
2023-03-28T08:43:04.203Z,2.80
2023-03-28T08:44:34.037Z,2.80
2023-03-28T08:45:51.938Z,2.95
2023-03-28T08:46:59.097Z,2.50
2023-03-28T08:48:14.016Z,2.42
2023-03-28T08:49:19.596Z,3.20
2023-03-28T08:50:28.952Z,3.42
2023-03-28T08:51:37.074Z,2.75
2023-03-28T08:52:41.820Z,2.65
2023-03-28T08:53:52.755Z,3.00
2023-03-28T08:54:58.321Z,2.60
2023-03-28T08:56:04.293Z,2.95
2023-03-28T08:57:07.785Z,2.50
2023-03-28T08:58:19.747Z,2.40
2023-03-28T08:59:28.398Z,2.80
2023-03-28T09:00:32.881Z,2.85
2023-03-28T09:01:36.740Z,2.50
2023-03-28T09:02:39.025Z,2.20
2023-03-28T09:03:42.308Z,2.13
2023-03-28T09:04:51.391Z,2.25
2023-03-28T09:06:06.761Z,2.65
2023-03-28T09:07:23.678Z,2.70
2023-03-28T09:08:41.686Z,2.00
2023-03-28T09:09:54.494Z,2.20
2023-03-28T09:11:16.738Z,2.95
2023-03-28T09:12:37.278Z,2.35
2023-03-28T09:13:52.439Z,3.08
2023-03-28T09:15:17.233Z,2.25
2023-03-28T09:16:44.763Z,2.40
2023-03-28T09:18:08.269Z,2.30
2023-03-28T09:19:33.966Z,2.22
2023-03-28T09:21:13.974Z,1.58
2023-03-28T09:22:30.177Z,2.10
2023-03-28T09:24:07.312Z,1.75
2023-03-28T09:25:38.416Z,2.30
2023-03-28T09:26:45.638Z,2.70
2023-03-28T09:28:00.774Z,2.30
2023-03-28T09:29:07.419Z,2.10
2023-03-28T09:30:19.813Z,2.05
2023-03-28T09:31:28.905Z,1.90
2023-03-28T09:32:38.126Z,2.10
2023-03-28T09:33:45.257Z,1.58
2023-03-28T09:34:52.115Z,1.63
2023-03-28T09:35:58.211Z,1.55
2023-03-28T09:37:15.244Z,1.90
2023-03-28T09:38:23.562Z,2.00
2023-03-28T09:39:33.887Z,1.40
2023-03-28T09:40:42.694Z,1.50
2023-03-28T09:42:13.891Z,1.83
2023-03-28T09:43:33.770Z,1.90
2023-03-28T09:45:16.874Z,2.28
2023-03-28T09:46:45.101Z,1.90
2023-03-28T09:48:19.617Z,3.78
2023-03-28T09:49:25.611Z,1.90
2023-03-28T09:50:36.093Z,1.60
2023-03-28T09:51:40.905Z,1.52
2023-03-28T09:52:44.519Z,1.67
2023-03-28T09:53:48.730Z,1.50
2023-03-28T09:54:52.822Z,1.40
2023-03-28T09:56:04.886Z,1.70
2023-03-28T09:57:12.198Z,1.40
2023-03-28T09:58:49.159Z,1.75
2023-03-28T10:00:22.909Z,1.55
2023-03-28T10:01:48.051Z,1.63
2023-03-28T10:03:16.093Z,1.90
2023-03-28T10:04:21.583Z,1.73
2023-03-28T10:05:45.215Z,2.17
2023-03-28T10:07:30.518Z,2.10
2023-03-28T10:08:42.753Z,1.90
2023-03-28T10:09:58.666Z,2.05
2023-03-28T10:11:07.885Z,1.90
2023-03-28T10:12:10.957Z,2.15
2023-03-28T10:13:15.799Z,2.10
2023-03-28T10:14:30.666Z,2.40
2023-03-28T10:15:46.790Z,2.90
2023-03-28T10:17:13.112Z,2.22
2023-03-28T10:18:27.066Z,2.38
2023-03-28T10:20:01.822Z,2.42
2023-03-28T10:21:16.349Z,1.90
2023-03-28T10:22:24.937Z,2.17
2023-03-28T10:23:29.025Z,2.40
2023-03-28T10:24:32.937Z,2.58
2023-03-28T10:25:40.534Z,2.30
2023-03-28T10:26:44.065Z,2.67
2023-03-28T10:27:48.894Z,2.10
2023-03-28T10:28:54.635Z,2.33
2023-03-28T10:30:09.541Z,3.15
2023-03-28T10:31:29.019Z,2.47
2023-03-28T10:32:42.754Z,1.73
2023-03-28T10:34:08.652Z,2.40
2023-03-28T10:35:30.854Z,2.00
2023-03-28T10:36:50.245Z,2.40
2023-03-28T10:38:03.517Z,2.15
2023-03-28T10:39:36.195Z,1.92
2023-03-28T10:41:03.452Z,2.60
2023-03-28T10:42:45.222Z,3.03
2023-03-28T10:44:19.241Z,1.90
2023-03-28T10:45:35.528Z,2.20
2023-03-28T10:46:41.085Z,2.08
2023-03-28T10:47:57.806Z,1.92
2023-03-28T10:49:05.731Z,2.22
2023-03-28T10:50:22.703Z,2.08
2023-03-28T10:51:27.545Z,2.20
2023-03-28T10:52:38.197Z,1.90
2023-03-28T10:54:06.546Z,2.00
2023-03-28T10:55:17.318Z,1.70
2023-03-28T10:56:42.324Z,1.90
2023-03-28T10:58:02.331Z,2.00
2023-03-28T10:59:21.509Z,1.70
2023-03-28T11:00:31.358Z,2.13
2023-03-28T11:01:44.274Z,2.00
2023-03-28T11:03:08.154Z,2.38
2023-03-28T11:04:38.483Z,1.80
2023-03-28T11:06:05.860Z,2.50
2023-03-28T11:07:20.572Z,2.08
2023-03-28T11:08:54.305Z,1.85
2023-03-28T11:10:15.426Z,2.13
2023-03-28T11:11:52.152Z,1.75
2023-03-28T11:13:07.955Z,2.08
2023-03-28T11:14:28.740Z,1.80
2023-03-28T11:15:37.547Z,2.05
2023-03-28T11:16:59.010Z,1.98
2023-03-28T11:18:35.194Z,1.83
2023-03-28T11:20:07.050Z,2.10
2023-03-28T11:21:27.701Z,1.90
2023-03-28T11:22:44.305Z,2.15
2023-03-28T11:24:02.978Z,2.00
2023-03-28T11:25:35.299Z,1.65
2023-03-28T11:27:15.318Z,2.10
2023-03-28T11:29:03.979Z,2.00
2023-03-28T11:30:13.883Z,1.85
2023-03-28T11:31:29.526Z,1.90
2023-03-28T11:32:41.825Z,2.25
2023-03-28T11:33:55.194Z,2.40
2023-03-28T11:35:06.558Z,2.00
2023-03-28T11:36:14.595Z,1.92
2023-03-28T11:37:21.363Z,1.70
2023-03-28T11:38:27.954Z,2.00
2023-03-28T11:39:38.743Z,1.90
2023-03-28T11:40:50.360Z,2.00
2023-03-28T11:41:56.765Z,2.10
2023-03-28T11:43:13.907Z,1.85
2023-03-28T11:44:23.821Z,1.80
2023-03-28T11:45:46.783Z,2.05
2023-03-28T11:47:00.130Z,1.90
2023-03-28T11:48:07.640Z,2.30
2023-03-28T11:49:19.493Z,2.03
2023-03-28T11:50:28.372Z,2.20
2023-03-28T11:51:46.712Z,2.30
2023-03-28T11:52:54.968Z,2.05
2023-03-28T11:54:05.334Z,2.45
2023-03-28T11:55:18.082Z,2.97
2023-03-28T11:56:44.003Z,1.98
2023-03-28T11:57:55.986Z,2.08
2023-03-28T11:59:03.219Z,2.20
2023-03-28T12:00:32.271Z,2.05
2023-03-28T12:01:43.798Z,2.35
2023-03-28T12:02:52.733Z,2.47
2023-03-28T12:04:06.802Z,2.25
2023-03-28T12:05:22.806Z,2.38
2023-03-28T12:06:31.470Z,2.08
2023-03-28T12:07:41.080Z,2.33
2023-03-28T12:09:06.610Z,2.42
2023-03-28T12:10:20.578Z,2.20
2023-03-28T12:11:29.868Z,1.80
2023-03-28T12:12:46.486Z,2.15
2023-03-28T12:14:01.396Z,2.03
2023-03-28T12:15:17.163Z,2.38
2023-03-28T12:16:31.504Z,2.20
2023-03-28T12:17:39.033Z,2.05
2023-03-28T12:18:46.589Z,1.80
2023-03-28T12:20:16.952Z,2.33
2023-03-28T12:21:27.222Z,2.38
2023-03-28T12:22:37.936Z,2.28
2023-03-28T12:23:52.138Z,2.50
2023-03-28T12:25:31.278Z,2.47
2023-03-28T12:26:55.921Z,2.20
2023-03-28T12:28:10.311Z,2.30
2023-03-28T12:29:18.395Z,2.10
2023-03-28T12:30:29.944Z,2.10
2023-03-28T12:31:42.697Z,2.40
2023-03-28T12:32:59.752Z,2.53
2023-03-28T12:34:14.673Z,2.17
2023-03-28T12:35:43.010Z,2.22
2023-03-28T12:36:54.050Z,2.53
2023-03-28T12:38:06.494Z,2.03
2023-03-28T12:39:24.349Z,2.30
2023-03-28T12:40:37.419Z,2.40
2023-03-28T12:41:42.166Z,2.25
2023-03-28T12:42:46.706Z,2.70
2023-03-28T12:43:54.968Z,2.10
2023-03-28T12:45:04.412Z,1.90
2023-03-28T12:46:09.731Z,2.00
2023-03-28T12:47:18.174Z,2.47
2023-03-28T12:48:30.589Z,2.42
2023-03-28T12:49:38.383Z,2.20
2023-03-28T12:50:51.221Z,2.20
2023-03-28T12:51:57.832Z,2.05
2023-03-28T12:53:01.651Z,1.90
2023-03-28T12:54:16.714Z,2.47
2023-03-28T12:55:44.533Z,2.30
2023-03-28T12:56:48.763Z,2.67
2023-03-28T12:57:53.382Z,2.40
2023-03-28T12:59:53.397Z,2.22
2023-03-28T13:01:45.126Z,2.15
2023-03-28T13:03:16.354Z,2.47
2023-03-28T13:04:29.047Z,2.50
2023-03-28T13:05:46.295Z,2.28
2023-03-28T13:06:59.505Z,3.33
2023-03-28T13:08:08.939Z,2.65
2023-03-28T13:09:47.493Z,2.67
2023-03-28T13:11:10.399Z,2.20
2023-03-28T13:12:29.094Z,2.35
2023-03-28T13:13:44.886Z,2.50
2023-03-28T13:15:00.496Z,2.20
2023-03-28T13:16:07.140Z,2.65
2023-03-28T13:17:22.719Z,2.35
2023-03-28T13:18:31.725Z,2.35
2023-03-28T13:19:48.313Z,2.40
2023-03-28T13:20:51.959Z,2.00
2023-03-28T13:21:57.619Z,2.40
2023-03-28T13:23:06.367Z,2.08
2023-03-28T13:24:28.929Z,2.38
2023-03-28T13:25:33.213Z,1.90
2023-03-28T13:26:57.728Z,2.20
2023-03-28T13:28:01.392Z,2.97
2023-03-28T13:29:08.882Z,2.88
2023-03-28T13:30:17.088Z,2.35
2023-03-28T13:31:23.271Z,2.30
2023-03-28T13:32:27.002Z,2.60
2023-03-28T13:33:33.446Z,2.53
2023-03-28T13:34:37.183Z,1.95
2023-03-28T13:35:46.283Z,2.53
2023-03-28T13:36:54.418Z,2.60
2023-03-28T13:38:13.640Z,2.80
2023-03-28T13:39:24.953Z,2.25
2023-03-28T13:40:50.807Z,2.53
2023-03-28T13:41:59.407Z,2.03
2023-03-28T13:43:01.443Z,2.20
2023-03-28T13:44:11.656Z,2.78
2023-03-28T13:45:21.210Z,2.50
2023-03-28T13:46:29.435Z,2.45
2023-03-28T13:47:38.319Z,2.60
2023-03-28T13:48:45.961Z,2.30
2023-03-28T13:49:52.873Z,2.63
2023-03-28T13:50:58.243Z,2.40
2023-03-28T13:52:08.241Z,2.88
2023-03-28T13:53:12.280Z,2.75
2023-03-28T13:54:18.244Z,2.45
2023-03-28T13:55:23.135Z,2.30
2023-03-28T13:56:29.265Z,2.70
2023-03-28T13:57:32.577Z,2.70
2023-03-28T13:58:35.972Z,2.10
2023-03-28T13:59:41.038Z,2.50
2023-03-28T14:00:43.127Z,2.33
2023-03-28T14:01:49.840Z,2.20
2023-03-28T14:03:00.438Z,2.85
2023-03-28T14:04:03.787Z,2.60
2023-03-28T14:05:15.359Z,3.00
2023-03-28T14:06:23.115Z,2.65
2023-03-28T14:07:27.759Z,2.95
2023-03-28T14:08:30.024Z,2.55
2023-03-28T14:09:34.948Z,2.35
2023-03-28T14:10:40.941Z,2.35
2023-03-28T14:11:44.995Z,2.78
2023-03-28T14:12:47.349Z,2.80
2023-03-28T14:13:51.975Z,2.30
2023-03-28T14:14:55.746Z,2.78
2023-03-28T14:15:58.901Z,2.75
2023-03-28T14:17:04.381Z,2.60
2023-03-28T14:18:12.493Z,2.30
2023-03-28T14:19:21.180Z,2.78
2023-03-28T14:20:26.352Z,3.40
2023-03-28T14:21:29.409Z,2.63
2023-03-28T14:22:34.240Z,2.70
2023-03-28T14:23:38.617Z,2.50
2023-03-28T14:24:44.687Z,2.90
2023-03-28T14:25:46.743Z,2.38
2023-03-28T14:26:50.769Z,2.38
2023-03-28T14:27:56.255Z,2.58
2023-03-28T14:29:01.294Z,2.50
2023-03-28T14:30:17.258Z,2.45
2023-03-28T14:31:31.067Z,2.85
2023-03-28T14:32:35.197Z,2.20
2023-03-28T14:33:47.414Z,3.72
2023-03-28T14:34:50.871Z,2.50
2023-03-28T14:35:57.982Z,2.55
2023-03-28T14:37:03.631Z,2.25
2023-03-28T14:38:07.922Z,2.50
2023-03-28T14:39:19.715Z,2.95
2023-03-28T14:40:32.535Z,2.38
2023-03-28T14:41:37.497Z,2.88
2023-03-28T14:42:41.984Z,2.67
2023-03-28T14:43:51.673Z,2.60
2023-03-28T14:44:56.121Z,2.40
2023-03-28T14:46:03.081Z,2.90
2023-03-28T14:47:06.506Z,2.50
2023-03-28T14:48:13.134Z,3.03
2023-03-28T14:49:20.726Z,3.00
2023-03-28T14:50:26.819Z,2.40
2023-03-28T14:51:38.781Z,2.38
2023-03-28T14:52:44.489Z,3.15
2023-03-28T14:53:47.426Z,2.63
2023-03-28T14:54:51.504Z,2.55
2023-03-28T14:55:58.112Z,2.85
2023-03-28T14:57:03.962Z,2.90
2023-03-28T14:58:06.957Z,3.05
2023-03-28T14:59:16.380Z,2.53
2023-03-28T15:00:23.202Z,2.13
2023-03-28T15:01:27.043Z,2.40
2023-03-28T15:02:35.259Z,2.75
2023-03-28T15:03:42.003Z,2.95
2023-03-28T15:04:47.954Z,2.88
2023-03-28T15:05:52.657Z,2.55
2023-03-28T15:06:56.520Z,2.70
2023-03-28T15:08:03.033Z,2.65
2023-03-28T15:09:12.256Z,3.10
2023-03-28T15:10:24.373Z,2.67
2023-03-28T15:11:32.448Z,2.80
2023-03-28T15:12:41.631Z,2.65
2023-03-28T15:13:48.302Z,2.90
2023-03-28T15:14:51.401Z,2.58
2023-03-28T15:15:56.589Z,2.58
2023-03-28T15:17:00.860Z,2.85
2023-03-28T15:18:06.724Z,3.38
2023-03-28T15:19:18.416Z,2.78
2023-03-28T15:20:26.784Z,3.22
2023-03-28T15:21:29.888Z,3.25
2023-03-28T15:22:35.798Z,2.60
2023-03-28T15:23:44.498Z,3.15
2023-03-28T15:24:47.574Z,3.15
2023-03-28T15:25:49.886Z,2.78
2023-03-28T15:26:57.156Z,2.60
2023-03-28T15:28:03.431Z,2.75
2023-03-28T15:29:07.464Z,2.50
2023-03-28T15:30:16.145Z,2.20
2023-03-28T15:31:19.657Z,2.92
2023-03-28T15:32:23.098Z,2.63
2023-03-28T15:33:26.420Z,2.67
2023-03-28T15:34:29.223Z,2.63
2023-03-28T15:35:39.502Z,2.53
2023-03-28T15:36:49.246Z,2.63
2023-03-28T15:37:52.334Z,2.90
2023-03-28T15:39:00.150Z,2.92